sensor_id;sensor_type;location;lat;lon;timestamp;pressure;altitude;pressure_sealevel;temperature;humidity
76137;BME280;68622;53.128;17.966;2023-04-25T00:01:46;100001.75;;;12.40;73.36
76137;BME280;68622;53.128;17.966;2023-04-25T00:04:13;100003.27;;;12.37;73.34
76137;BME280;68622;53.128;17.966;2023-04-25T00:06:38;100002.80;;;12.36;72.82
76137;BME280;68622;53.128;17.966;2023-04-25T00:09:05;99999.77;;;12.37;72.33
76137;BME280;68622;53.128;17.966;2023-04-25T00:11:34;100000.39;;;12.34;72.30
76137;BME280;68622;53.128;17.966;2023-04-25T00:14:00;99998.89;;;12.34;72.03
76137;BME280;68622;53.128;17.966;2023-04-25T00:16:28;99997.16;;;12.27;71.78
76137;BME280;68622;53.128;17.966;2023-04-25T00:18:55;100003.10;;;12.23;71.73
76137;BME280;68622;53.128;17.966;2023-04-25T00:21:21;100001.48;;;12.20;71.55
76137;BME280;68622;53.128;17.966;2023-04-25T00:23:48;100001.95;;;12.13;71.31
76137;BME280;68622;53.128;17.966;2023-04-25T00:26:13;99999.51;;;12.10;71.02
76137;BME280;68622;53.128;17.966;2023-04-25T00:28:40;100005.40;;;12.05;71.00
76137;BME280;68622;53.128;17.966;2023-04-25T00:31:06;100008.14;;;12.02;70.79
76137;BME280;68622;53.128;17.966;2023-04-25T00:33:32;100011.63;;;11.96;70.54
76137;BME280;68622;53.128;17.966;2023-04-25T00:35:58;100015.89;;;11.93;70.42
76137;BME280;68622;53.128;17.966;2023-04-25T00:38:24;100013.52;;;11.85;70.30
76137;BME280;68622;53.128;17.966;2023-04-25T00:40:50;100014.23;;;11.80;69.73
76137;BME280;68622;53.128;17.966;2023-04-25T00:43:16;100019.33;;;11.69;69.11
76137;BME280;68622;53.128;17.966;2023-04-25T00:45:42;100019.98;;;11.66;69.24
76137;BME280;68622;53.128;17.966;2023-04-25T00:48:08;100025.21;;;11.57;68.61
76137;BME280;68622;53.128;17.966;2023-04-25T00:50:35;100026.97;;;11.57;68.68
76137;BME280;68622;53.128;17.966;2023-04-25T00:53:02;100027.69;;;11.54;68.75
76137;BME280;68622;53.128;17.966;2023-04-25T00:55:29;100030.70;;;11.51;68.79
76137;BME280;68622;53.128;17.966;2023-04-25T00:57:58;100033.67;;;11.46;68.94
76137;BME280;68622;53.128;17.966;2023-04-25T01:00:24;100034.91;;;11.43;69.27
76137;BME280;68622;53.128;17.966;2023-04-25T01:02:50;100035.64;;;11.38;69.46
76137;BME280;68622;53.128;17.966;2023-04-25T01:05:16;100034.35;;;11.34;69.41
76137;BME280;68622;53.128;17.966;2023-04-25T01:07:42;100034.16;;;11.28;69.60
76137;BME280;68622;53.128;17.966;2023-04-25T01:10:08;100033.60;;;11.27;69.52
76137;BME280;68622;53.128;17.966;2023-04-25T01:12:35;100034.01;;;11.24;69.41
76137;BME280;68622;53.128;17.966;2023-04-25T01:18:16;100031.61;;;11.19;69.25
76137;BME280;68622;53.128;17.966;2023-04-25T01:20:43;100031.95;;;11.17;68.95
76137;BME280;68622;53.128;17.966;2023-04-25T01:23:09;100031.59;;;11.10;68.76
76137;BME280;68622;53.128;17.966;2023-04-25T01:25:36;100036.08;;;11.09;68.61
76137;BME280;68622;53.128;17.966;2023-04-25T01:28:03;100034.59;;;11.07;68.94
76137;BME280;68622;53.128;17.966;2023-04-25T01:30:31;100037.89;;;11.08;68.75
76137;BME280;68622;53.128;17.966;2023-04-25T01:32:57;100037.63;;;11.06;68.78
76137;BME280;68622;53.128;17.966;2023-04-25T01:35:23;100038.83;;;11.04;68.68
76137;BME280;68622;53.128;17.966;2023-04-25T01:37:53;100037.44;;;11.01;68.74
76137;BME280;68622;53.128;17.966;2023-04-25T01:40:20;100040.54;;;10.92;69.18
76137;BME280;68622;53.128;17.966;2023-04-25T01:42:48;100041.98;;;10.87;69.08
76137;BME280;68622;53.128;17.966;2023-04-25T01:45:15;100048.25;;;10.87;68.81
76137;BME280;68622;53.128;17.966;2023-04-25T01:47:41;100048.39;;;10.84;68.83
76137;BME280;68622;53.128;17.966;2023-04-25T01:50:09;100051.23;;;10.81;69.00
76137;BME280;68622;53.128;17.966;2023-04-25T01:52:37;100053.33;;;10.77;69.04
76137;BME280;68622;53.128;17.966;2023-04-25T01:55:03;100052.68;;;10.74;69.01
76137;BME280;68622;53.128;17.966;2023-04-25T01:57:32;100056.01;;;10.70;69.16
76137;BME280;68622;53.128;17.966;2023-04-25T02:00:02;100056.55;;;10.68;69.29
76137;BME280;68622;53.128;17.966;2023-04-25T02:02:40;100056.38;;;10.64;69.60
76137;BME280;68622;53.128;17.966;2023-04-25T02:05:16;100057.86;;;10.61;69.38
76137;BME280;68622;53.128;17.966;2023-04-25T02:07:43;100058.67;;;10.57;69.25
76137;BME280;68622;53.128;17.966;2023-04-25T02:10:09;100061.39;;;10.54;69.30
76137;BME280;68622;53.128;17.966;2023-04-25T02:12:41;100062.41;;;10.52;69.18
76137;BME280;68622;53.128;17.966;2023-04-25T02:15:20;100065.70;;;10.45;69.58
76137;BME280;68622;53.128;17.966;2023-04-25T02:17:58;100061.90;;;10.38;69.92
76137;BME280;68622;53.128;17.966;2023-04-25T02:20:26;100069.20;;;10.31;69.90
76137;BME280;68622;53.128;17.966;2023-04-25T02:22:52;100076.05;;;10.25;70.02
76137;BME280;68622;53.128;17.966;2023-04-25T02:25:20;100069.68;;;10.19;69.88
76137;BME280;68622;53.128;17.966;2023-04-25T02:27:47;100071.98;;;10.16;70.13
76137;BME280;68622;53.128;17.966;2023-04-25T02:30:14;100073.98;;;10.13;69.67
76137;BME280;68622;53.128;17.966;2023-04-25T02:32:40;100071.81;;;10.09;69.57
76137;BME280;68622;53.128;17.966;2023-04-25T02:35:09;100074.55;;;10.04;69.57
76137;BME280;68622;53.128;17.966;2023-04-25T02:37:37;100073.27;;;9.98;69.67
76137;BME280;68622;53.128;17.966;2023-04-25T02:40:04;100071.29;;;9.93;69.40
76137;BME280;68622;53.128;17.966;2023-04-25T02:42:31;100077.52;;;9.87;69.42
76137;BME280;68622;53.128;17.966;2023-04-25T02:44:57;100079.55;;;9.85;69.28
76137;BME280;68622;53.128;17.966;2023-04-25T02:47:23;100078.45;;;9.79;69.30
76137;BME280;68622;53.128;17.966;2023-04-25T02:49:49;100075.84;;;9.76;69.17
76137;BME280;68622;53.128;17.966;2023-04-25T02:52:15;100078.63;;;9.76;69.04
76137;BME280;68622;53.128;17.966;2023-04-25T02:54:42;100083.29;;;9.74;69.16
76137;BME280;68622;53.128;17.966;2023-04-25T02:57:08;100083.70;;;9.66;69.32
76137;BME280;68622;53.128;17.966;2023-04-25T02:59:35;100085.56;;;9.63;69.27
76137;BME280;68622;53.128;17.966;2023-04-25T03:02:01;100085.86;;;9.58;69.41
76137;BME280;68622;53.128;17.966;2023-04-25T03:04:27;100085.32;;;9.57;69.36
76137;BME280;68622;53.128;17.966;2023-04-25T03:06:54;100084.90;;;9.54;69.13
76137;BME280;68622;53.128;17.966;2023-04-25T03:09:21;100088.23;;;9.49;69.05
76137;BME280;68622;53.128;17.966;2023-04-25T03:11:47;100085.52;;;9.45;68.78
76137;BME280;68622;53.128;17.966;2023-04-25T03:14:13;100087.25;;;9.40;69.19
76137;BME280;68622;53.128;17.966;2023-04-25T03:16:39;100084.30;;;9.34;69.00
76137;BME280;68622;53.128;17.966;2023-04-25T03:19:05;100083.16;;;9.30;68.92
76137;BME280;68622;53.128;17.966;2023-04-25T03:21:33;100083.87;;;9.24;69.03
76137;BME280;68622;53.128;17.966;2023-04-25T03:24:02;100083.27;;;9.20;68.84
76137;BME280;68622;53.128;17.966;2023-04-25T03:26:28;100078.21;;;9.07;68.99
76137;BME280;68622;53.128;17.966;2023-04-25T03:28:54;100089.25;;;9.05;69.15
76137;BME280;68622;53.128;17.966;2023-04-25T03:31:21;100087.11;;;9.03;68.90
76137;BME280;68622;53.128;17.966;2023-04-25T03:33:48;100085.04;;;8.97;69.09
76137;BME280;68622;53.128;17.966;2023-04-25T03:36:14;100088.04;;;8.96;69.03
76137;BME280;68622;53.128;17.966;2023-04-25T03:38:40;100093.13;;;8.93;68.96
76137;BME280;68622;53.128;17.966;2023-04-25T03:41:07;100095.73;;;8.86;69.32
76137;BME280;68622;53.128;17.966;2023-04-25T03:43:46;100094.84;;;8.82;69.31
76137;BME280;68622;53.128;17.966;2023-04-25T03:46:12;100098.92;;;8.81;69.22
76137;BME280;68622;53.128;17.966;2023-04-25T03:48:58;100103.09;;;8.81;69.23
76137;BME280;68622;53.128;17.966;2023-04-25T03:51:31;100103.01;;;8.84;69.17
76137;BME280;68622;53.128;17.966;2023-04-25T03:53:57;100109.83;;;8.87;68.74
76137;BME280;68622;53.128;17.966;2023-04-25T03:56:31;100113.16;;;8.84;69.07
76137;BME280;68622;53.128;17.966;2023-04-25T03:59:23;100114.52;;;8.84;68.95
76137;BME280;68622;53.128;17.966;2023-04-25T04:01:50;100116.70;;;8.83;68.51
76137;BME280;68622;53.128;17.966;2023-04-25T04:04:16;100118.90;;;8.78;68.24
76137;BME280;68622;53.128;17.966;2023-04-25T04:06:42;100124.03;;;8.79;68.31
76137;BME280;68622;53.128;17.966;2023-04-25T04:09:22;100122.08;;;8.78;68.37
76137;BME280;68622;53.128;17.966;2023-04-25T04:11:48;100123.09;;;8.78;68.68
76137;BME280;68622;53.128;17.966;2023-04-25T04:14:15;100125.30;;;8.76;68.32
76137;BME280;68622;53.128;17.966;2023-04-25T04:16:44;100125.73;;;8.77;68.26
76137;BME280;68622;53.128;17.966;2023-04-25T04:19:10;100128.93;;;8.76;68.05
76137;BME280;68622;53.128;17.966;2023-04-25T04:21:37;100136.73;;;8.78;68.00
76137;BME280;68622;53.128;17.966;2023-04-25T04:24:04;100139.73;;;8.77;68.31
76137;BME280;68622;53.128;17.966;2023-04-25T04:26:40;100139.40;;;8.83;67.89
76137;BME280;68622;53.128;17.966;2023-04-25T04:29:25;100140.09;;;8.85;67.86
76137;BME280;68622;53.128;17.966;2023-04-25T04:32:01;100143.54;;;8.89;67.71
76137;BME280;68622;53.128;17.966;2023-04-25T04:34:27;100148.60;;;8.90;67.29
76137;BME280;68622;53.128;17.966;2023-04-25T04:36:54;100150.13;;;8.92;67.32
76137;BME280;68622;53.128;17.966;2023-04-25T04:39:20;100152.58;;;8.94;67.28
76137;BME280;68622;53.128;17.966;2023-04-25T04:42:13;100153.13;;;8.94;67.38
76137;BME280;68622;53.128;17.966;2023-04-25T04:44:52;100154.65;;;8.98;67.17
76137;BME280;68622;53.128;17.966;2023-04-25T04:47:37;100156.90;;;8.96;67.00
76137;BME280;68622;53.128;17.966;2023-04-25T04:50:31;100153.13;;;8.95;66.94
76137;BME280;68622;53.128;17.966;2023-04-25T04:53:21;100153.85;;;8.93;66.70
76137;BME280;68622;53.128;17.966;2023-04-25T04:56:05;100150.45;;;8.93;67.03
76137;BME280;68622;53.128;17.966;2023-04-25T04:58:53;100155.59;;;8.89;66.63
76137;BME280;68622;53.128;17.966;2023-04-25T05:01:40;100156.33;;;8.94;66.88
76137;BME280;68622;53.128;17.966;2023-04-25T05:04:08;100160.58;;;8.97;66.82
76137;BME280;68622;53.128;17.966;2023-04-25T05:06:45;100162.00;;;8.99;66.80
76137;BME280;68622;53.128;17.966;2023-04-25T05:09:23;100162.64;;;9.05;66.49
76137;BME280;68622;53.128;17.966;2023-04-25T05:12:07;100161.31;;;8.98;66.36
76137;BME280;68622;53.128;17.966;2023-04-25T05:14:51;100157.45;;;9.01;66.27
76137;BME280;68622;53.128;17.966;2023-04-25T05:17:36;100157.60;;;8.99;66.12
76137;BME280;68622;53.128;17.966;2023-04-25T05:20:24;100163.70;;;9.04;66.45
76137;BME280;68622;53.128;17.966;2023-04-25T05:23:04;100164.94;;;9.10;66.22
76137;BME280;68622;53.128;17.966;2023-04-25T05:25:56;100162.52;;;9.14;66.12
76137;BME280;68622;53.128;17.966;2023-04-25T05:28:58;100164.42;;;9.21;65.86
76137;BME280;68622;53.128;17.966;2023-04-25T05:31:36;100166.74;;;9.32;65.62
76137;BME280;68622;53.128;17.966;2023-04-25T05:34:08;100164.42;;;9.36;65.36
76137;BME280;68622;53.128;17.966;2023-04-25T05:36:42;100166.86;;;9.44;65.28
76137;BME280;68622;53.128;17.966;2023-04-25T05:39:08;100168.98;;;9.56;65.24
76137;BME280;68622;53.128;17.966;2023-04-25T05:41:57;100168.70;;;9.67;64.37
76137;BME280;68622;53.128;17.966;2023-04-25T05:44:44;100168.52;;;9.76;64.15
76137;BME280;68622;53.128;17.966;2023-04-25T05:47:21;100171.20;;;9.88;63.81
76137;BME280;68622;53.128;17.966;2023-04-25T05:50:00;100167.21;;;9.94;63.43
76137;BME280;68622;53.128;17.966;2023-04-25T05:52:39;100164.84;;;9.97;63.00
76137;BME280;68622;53.128;17.966;2023-04-25T05:55:23;100169.29;;;10.01;62.86
76137;BME280;68622;53.128;17.966;2023-04-25T05:57:50;100169.90;;;10.09;63.32
76137;BME280;68622;53.128;17.966;2023-04-25T06:00:16;100169.16;;;10.19;63.55
76137;BME280;68622;53.128;17.966;2023-04-25T06:02:42;100174.90;;;10.18;62.89
76137;BME280;68622;53.128;17.966;2023-04-25T06:05:09;100170.40;;;10.17;62.56
76137;BME280;68622;53.128;17.966;2023-04-25T06:07:35;100172.23;;;10.16;62.67
76137;BME280;68622;53.128;17.966;2023-04-25T06:10:02;100169.02;;;10.19;62.62
76137;BME280;68622;53.128;17.966;2023-04-25T06:12:32;100169.17;;;10.20;62.49
76137;BME280;68622;53.128;17.966;2023-04-25T06:15:03;100174.80;;;10.25;62.76
76137;BME280;68622;53.128;17.966;2023-04-25T06:17:30;100174.42;;;10.27;62.45
76137;BME280;68622;53.128;17.966;2023-04-25T06:19:57;100171.00;;;10.40;62.47
76137;BME280;68622;53.128;17.966;2023-04-25T06:22:23;100170.76;;;10.44;62.23
76137;BME280;68622;53.128;17.966;2023-04-25T06:24:50;100176.56;;;10.59;62.11
76137;BME280;68622;53.128;17.966;2023-04-25T06:27:16;100174.27;;;10.74;62.25
76137;BME280;68622;53.128;17.966;2023-04-25T06:29:42;100174.02;;;10.83;60.85
76137;BME280;68622;53.128;17.966;2023-04-25T06:32:08;100172.11;;;11.01;60.94
76137;BME280;68622;53.128;17.966;2023-04-25T06:34:34;100168.67;;;11.02;60.27
76137;BME280;68622;53.128;17.966;2023-04-25T06:37:00;100171.28;;;11.11;60.27
76137;BME280;68622;53.128;17.966;2023-04-25T06:39:26;100169.14;;;11.27;60.00
76137;BME280;68622;53.128;17.966;2023-04-25T06:41:52;100168.86;;;11.33;59.58
76137;BME280;68622;53.128;17.966;2023-04-25T06:44:39;100164.17;;;11.49;59.37
76137;BME280;68622;53.128;17.966;2023-04-25T06:47:07;100163.48;;;11.49;58.80
76137;BME280;68622;53.128;17.966;2023-04-25T06:49:33;100162.64;;;11.54;58.74
76137;BME280;68622;53.128;17.966;2023-04-25T06:51:59;100161.50;;;11.41;58.01
76137;BME280;68622;53.128;17.966;2023-04-25T06:54:25;100162.02;;;11.43;58.74
76137;BME280;68622;53.128;17.966;2023-04-25T06:56:59;100160.17;;;11.46;58.32
76137;BME280;68622;53.128;17.966;2023-04-25T06:59:26;100155.51;;;11.67;58.27
76137;BME280;68622;53.128;17.966;2023-04-25T07:01:52;100156.38;;;11.81;58.36
76137;BME280;68622;53.128;17.966;2023-04-25T07:04:21;100156.36;;;11.88;57.59
76137;BME280;68622;53.128;17.966;2023-04-25T07:07:05;100159.61;;;12.07;57.64
76137;BME280;68622;53.128;17.966;2023-04-25T07:09:43;100157.63;;;12.18;56.64
76137;BME280;68622;53.128;17.966;2023-04-25T07:12:08;100155.11;;;12.48;56.56
76137;BME280;68622;53.128;17.966;2023-04-25T07:14:34;100155.06;;;12.63;57.06
76137;BME280;68622;53.128;17.966;2023-04-25T07:17:00;100155.83;;;12.73;55.53
76137;BME280;68622;53.128;17.966;2023-04-25T07:19:27;100158.40;;;12.86;55.22
76137;BME280;68622;53.128;17.966;2023-04-25T07:21:56;100160.95;;;13.00;55.16
76137;BME280;68622;53.128;17.966;2023-04-25T07:24:23;100157.98;;;13.04;54.63
76137;BME280;68622;53.128;17.966;2023-04-25T07:26:49;100157.36;;;13.01;53.98
76137;BME280;68622;53.128;17.966;2023-04-25T07:29:38;100159.80;;;13.07;54.74
76137;BME280;68622;53.128;17.966;2023-04-25T07:32:04;100161.17;;;13.09;53.98
76137;BME280;68622;53.128;17.966;2023-04-25T07:34:30;100165.30;;;13.22;53.47
76137;BME280;68622;53.128;17.966;2023-04-25T07:36:56;100164.92;;;13.31;53.49
76137;BME280;68622;53.128;17.966;2023-04-25T07:39:23;100163.96;;;13.35;52.90
76137;BME280;68622;53.128;17.966;2023-04-25T07:41:49;100165.89;;;13.39;52.73
76137;BME280;68622;53.128;17.966;2023-04-25T07:44:19;100168.30;;;13.20;52.14
76137;BME280;68622;53.128;17.966;2023-04-25T07:46:46;100169.77;;;12.97;52.54
76137;BME280;68622;53.128;17.966;2023-04-25T07:49:12;100174.65;;;12.82;52.99
76137;BME280;68622;53.128;17.966;2023-04-25T07:51:38;100173.88;;;12.75;53.51
76137;BME280;68622;53.128;17.966;2023-04-25T07:54:07;100179.38;;;12.75;53.67
76137;BME280;68622;53.128;17.966;2023-04-25T07:56:35;100178.27;;;12.64;53.51
76137;BME280;68622;53.128;17.966;2023-04-25T07:59:01;100179.16;;;12.72;53.90
76137;BME280;68622;53.128;17.966;2023-04-25T08:01:27;100185.13;;;12.80;53.85
76137;BME280;68622;53.128;17.966;2023-04-25T08:04:01;100185.55;;;12.79;53.90
76137;BME280;68622;53.128;17.966;2023-04-25T08:06:34;100188.42;;;12.82;54.11
76137;BME280;68622;53.128;17.966;2023-04-25T08:09:21;100186.80;;;12.92;54.23
76137;BME280;68622;53.128;17.966;2023-04-25T08:11:47;100186.34;;;13.05;54.24
76137;BME280;68622;53.128;17.966;2023-04-25T08:14:15;100189.50;;;13.18;54.19
76137;BME280;68622;53.128;17.966;2023-04-25T08:16:42;100189.15;;;13.19;53.49
76137;BME280;68622;53.128;17.966;2023-04-25T08:19:09;100192.98;;;13.14;53.75
76137;BME280;68622;53.128;17.966;2023-04-25T08:21:36;100193.36;;;13.19;53.57
76137;BME280;68622;53.128;17.966;2023-04-25T08:24:05;100195.02;;;13.33;53.56
76137;BME280;68622;53.128;17.966;2023-04-25T08:26:35;100194.41;;;13.42;53.06
76137;BME280;68622;53.128;17.966;2023-04-25T08:29:04;100194.92;;;13.49;52.69
76137;BME280;68622;53.128;17.966;2023-04-25T08:31:31;100196.31;;;13.59;52.58
76137;BME280;68622;53.128;17.966;2023-04-25T08:33:59;100194.88;;;13.72;52.54
76137;BME280;68622;53.128;17.966;2023-04-25T08:36:31;100200.87;;;13.78;52.50
76137;BME280;68622;53.128;17.966;2023-04-25T08:38:58;100203.08;;;13.69;52.11
76137;BME280;68622;53.128;17.966;2023-04-25T08:41:25;100201.92;;;13.71;52.18
76137;BME280;68622;53.128;17.966;2023-04-25T08:43:53;100201.23;;;13.60;52.12
76137;BME280;68622;53.128;17.966;2023-04-25T08:46:19;100201.60;;;13.57;52.32
76137;BME280;68622;53.128;17.966;2023-04-25T08:49:00;100196.05;;;13.50;52.10
76137;BME280;68622;53.128;17.966;2023-04-25T08:51:29;100200.91;;;13.41;52.49
76137;BME280;68622;53.128;17.966;2023-04-25T08:54:09;100201.14;;;13.32;52.67
76137;BME280;68622;53.128;17.966;2023-04-25T08:56:38;100201.29;;;13.23;52.91
76137;BME280;68622;53.128;17.966;2023-04-25T08:59:06;100205.38;;;13.06;53.14
76137;BME280;68622;53.128;17.966;2023-04-25T09:01:34;100212.06;;;13.00;52.95
76137;BME280;68622;53.128;17.966;2023-04-25T09:04:03;100210.23;;;13.09;52.93
76137;BME280;68622;53.128;17.966;2023-04-25T09:06:29;100213.48;;;13.26;53.11
76137;BME280;68622;53.128;17.966;2023-04-25T09:09:05;100211.70;;;13.36;52.69
76137;BME280;68622;53.128;17.966;2023-04-25T09:11:33;100213.50;;;13.56;52.21
76137;BME280;68622;53.128;17.966;2023-04-25T09:14:14;100217.77;;;13.81;51.71
76137;BME280;68622;53.128;17.966;2023-04-25T09:17:01;100218.36;;;13.96;50.80
76137;BME280;68622;53.128;17.966;2023-04-25T09:19:40;100216.66;;;14.13;50.18
76137;BME280;68622;53.128;17.966;2023-04-25T09:22:10;100216.38;;;14.19;49.46
76137;BME280;68622;53.128;17.966;2023-04-25T09:24:41;100220.08;;;14.31;49.63
76137;BME280;68622;53.128;17.966;2023-04-25T09:27:12;100221.02;;;14.33;49.65
76137;BME280;68622;53.128;17.966;2023-04-25T09:29:39;100220.84;;;14.21;49.17
76137;BME280;68622;53.128;17.966;2023-04-25T09:32:19;100217.80;;;14.37;49.27
76137;BME280;68622;53.128;17.966;2023-04-25T09:34:55;100213.06;;;14.34;49.32
76137;BME280;68622;53.128;17.966;2023-04-25T09:37:26;100217.16;;;14.36;48.84
76137;BME280;68622;53.128;17.966;2023-04-25T09:40:06;100217.77;;;14.71;49.26
76137;BME280;68622;53.128;17.966;2023-04-25T09:42:35;100220.23;;;15.03;48.43
76137;BME280;68622;53.128;17.966;2023-04-25T09:45:03;100223.95;;;15.06;47.33
76137;BME280;68622;53.128;17.966;2023-04-25T09:47:31;100225.73;;;15.13;46.41
76137;BME280;68622;53.128;17.966;2023-04-25T09:49:59;100224.52;;;15.08;45.96
76137;BME280;68622;53.128;17.966;2023-04-25T09:52:25;100226.37;;;15.13;47.80
76137;BME280;68622;53.128;17.966;2023-04-25T09:54:57;100230.45;;;15.04;47.51
76137;BME280;68622;53.128;17.966;2023-04-25T09:57:29;100237.59;;;15.00;47.26
76137;BME280;68622;53.128;17.966;2023-04-25T09:59:55;100240.45;;;15.07;47.68
76137;BME280;68622;53.128;17.966;2023-04-25T10:02:26;100238.64;;;14.98;47.32
76137;BME280;68622;53.128;17.966;2023-04-25T10:04:55;100243.34;;;14.94;47.35
76137;BME280;68622;53.128;17.966;2023-04-25T10:07:29;100243.16;;;14.95;47.64
76137;BME280;68622;53.128;17.966;2023-04-25T10:10:03;100242.02;;;14.84;47.00
76137;BME280;68622;53.128;17.966;2023-04-25T10:12:31;100241.80;;;14.92;46.78
76137;BME280;68622;53.128;17.966;2023-04-25T10:14:58;100242.65;;;14.88;46.57
76137;BME280;68622;53.128;17.966;2023-04-25T10:17:26;100241.28;;;14.87;46.99
76137;BME280;68622;53.128;17.966;2023-04-25T10:19:54;100244.33;;;14.95;47.22
76137;BME280;68622;53.128;17.966;2023-04-25T10:22:29;100246.62;;;15.04;47.37
76137;BME280;68622;53.128;17.966;2023-04-25T10:24:56;100247.29;;;15.20;46.60
76137;BME280;68622;53.128;17.966;2023-04-25T10:27:22;100245.20;;;15.08;46.71
76137;BME280;68622;53.128;17.966;2023-04-25T10:32:33;100246.05;;;15.41;46.45
76137;BME280;68622;53.128;17.966;2023-04-25T10:35:13;100251.17;;;15.45;46.08
76137;BME280;68622;53.128;17.966;2023-04-25T10:38:03;100252.89;;;15.41;45.91
76137;BME280;68622;53.128;17.966;2023-04-25T10:40:30;100254.39;;;15.33;45.67
76137;BME280;68622;53.128;17.966;2023-04-25T10:43:36;100252.72;;;15.29;45.29
76137;BME280;68622;53.128;17.966;2023-04-25T10:46:25;100255.17;;;15.12;45.58
76137;BME280;68622;53.128;17.966;2023-04-25T10:48:56;100249.42;;;15.01;45.56
76137;BME280;68622;53.128;17.966;2023-04-25T10:51:24;100251.57;;;14.90;45.48
76137;BME280;68622;53.128;17.966;2023-04-25T10:54:05;100252.89;;;14.79;45.62
76137;BME280;68622;53.128;17.966;2023-04-25T10:56:41;100249.28;;;14.64;46.49
76137;BME280;68622;53.128;17.966;2023-04-25T10:59:16;100249.25;;;14.51;46.33
76137;BME280;68622;53.128;17.966;2023-04-25T11:01:46;100250.73;;;14.42;46.76
76137;BME280;68622;53.128;17.966;2023-04-25T11:04:22;100249.37;;;14.40;46.63
76137;BME280;68622;53.128;17.966;2023-04-25T11:09:28;100247.83;;;14.40;46.52
76137;BME280;68622;53.128;17.966;2023-04-25T11:11:58;100252.83;;;14.46;46.73
76137;BME280;68622;53.128;17.966;2023-04-25T11:14:24;100251.09;;;14.44;46.80
76137;BME280;68622;53.128;17.966;2023-04-25T11:16:54;100252.92;;;14.49;46.82
76137;BME280;68622;53.128;17.966;2023-04-25T11:19:24;100257.36;;;14.44;46.81
76137;BME280;68622;53.128;17.966;2023-04-25T11:21:55;100260.70;;;14.25;46.58
76137;BME280;68622;53.128;17.966;2023-04-25T11:24:26;100266.27;;;14.07;47.19
76137;BME280;68622;53.128;17.966;2023-04-25T11:26:52;100267.50;;;13.93;47.57
76137;BME280;68622;53.128;17.966;2023-04-25T11:29:22;100265.52;;;13.77;47.91
76137;BME280;68622;53.128;17.966;2023-04-25T11:31:48;100271.16;;;13.58;48.51
76137;BME280;68622;53.128;17.966;2023-04-25T11:34:20;100270.20;;;13.63;48.73
76137;BME280;68622;53.128;17.966;2023-04-25T11:36:46;100268.94;;;13.66;48.53
76137;BME280;68622;53.128;17.966;2023-04-25T11:39:12;100264.02;;;13.76;48.13
76137;BME280;68622;53.128;17.966;2023-04-25T11:41:41;100267.10;;;13.84;48.16
76137;BME280;68622;53.128;17.966;2023-04-25T11:44:07;100264.89;;;14.02;47.92
76137;BME280;68622;53.128;17.966;2023-04-25T11:46:34;100268.92;;;14.20;47.70
76137;BME280;68622;53.128;17.966;2023-04-25T11:49:01;100262.55;;;14.36;47.73
76137;BME280;68622;53.128;17.966;2023-04-25T11:51:27;100267.30;;;14.32;47.07
76137;BME280;68622;53.128;17.966;2023-04-25T11:53:53;100269.83;;;14.24;47.40
76137;BME280;68622;53.128;17.966;2023-04-25T11:56:20;100268.11;;;14.29;47.13
76137;BME280;68622;53.128;17.966;2023-04-25T11:59:00;100265.38;;;14.44;47.13
76137;BME280;68622;53.128;17.966;2023-04-25T12:01:33;100267.48;;;14.63;46.19
76137;BME280;68622;53.128;17.966;2023-04-25T12:04:20;100267.72;;;14.79;46.52
76137;BME280;68622;53.128;17.966;2023-04-25T12:06:48;100271.56;;;14.97;45.15
76137;BME280;68622;53.128;17.966;2023-04-25T12:09:16;100270.35;;;15.06;43.77
76137;BME280;68622;53.128;17.966;2023-04-25T12:11:48;100268.23;;;15.06;42.91
76137;BME280;68622;53.128;17.966;2023-04-25T12:14:47;100270.86;;;15.14;43.33
76137;BME280;68622;53.128;17.966;2023-04-25T12:17:14;100269.67;;;15.14;43.64
76137;BME280;68622;53.128;17.966;2023-04-25T12:19:40;100269.66;;;15.36;44.03
76137;BME280;68622;53.128;17.966;2023-04-25T12:22:21;100270.70;;;15.48;43.77
76137;BME280;68622;53.128;17.966;2023-04-25T12:24:48;100271.83;;;15.51;43.56
76137;BME280;68622;53.128;17.966;2023-04-25T12:27:15;100269.23;;;15.63;43.79
76137;BME280;68622;53.128;17.966;2023-04-25T12:29:53;100267.02;;;15.68;43.40
76137;BME280;68622;53.128;17.966;2023-04-25T12:32:19;100267.39;;;15.70;43.59
76137;BME280;68622;53.128;17.966;2023-04-25T12:34:45;100261.86;;;15.82;43.65
76137;BME280;68622;53.128;17.966;2023-04-25T12:37:11;100263.08;;;15.88;43.41
76137;BME280;68622;53.128;17.966;2023-04-25T12:39:37;100266.08;;;15.99;43.49
76137;BME280;68622;53.128;17.966;2023-04-25T12:42:03;100271.86;;;15.88;42.95
76137;BME280;68622;53.128;17.966;2023-04-25T12:44:29;100270.89;;;16.02;43.73
76137;BME280;68622;53.128;17.966;2023-04-25T12:46:55;100269.46;;;15.98;43.18
76137;BME280;68622;53.128;17.966;2023-04-25T12:49:21;100266.91;;;16.06;43.14
76137;BME280;68622;53.128;17.966;2023-04-25T12:51:47;100270.30;;;16.13;42.55
76137;BME280;68622;53.128;17.966;2023-04-25T12:54:13;100268.99;;;15.96;42.24
76137;BME280;68622;53.128;17.966;2023-04-25T12:56:41;100270.04;;;15.96;42.88
76137;BME280;68622;53.128;17.966;2023-04-25T12:59:09;100265.62;;;15.89;42.48
76137;BME280;68622;53.128;17.966;2023-04-25T13:01:36;100260.25;;;15.97;42.67
76137;BME280;68622;53.128;17.966;2023-04-25T13:04:03;100258.05;;;15.88;42.91
76137;BME280;68622;53.128;17.966;2023-04-25T13:06:29;100258.29;;;15.71;43.07
76137;BME280;68622;53.128;17.966;2023-04-25T13:08:58;100265.83;;;15.43;43.10